sensor_id;sensor_type;location;lat;lon;timestamp;temperature;humidity
18153;DHT22;9202;51.578;7.734;2022-10-22T00:01:50;13.80;99.90
18153;DHT22;9202;51.578;7.734;2022-10-22T00:03:53;13.70;99.90
18153;DHT22;9202;51.578;7.734;2022-10-22T00:05:57;13.70;99.90
18153;DHT22;9202;51.578;7.734;2022-10-22T00:08:00;13.80;99.90
18153;DHT22;9202;51.578;7.734;2022-10-22T00:10:06;13.70;99.90
18153;DHT22;9202;51.578;7.734;2022-10-22T00:12:10;13.60;99.90
18153;DHT22;9202;51.578;7.734;2022-10-22T00:14:14;13.60;99.90
18153;DHT22;9202;51.578;7.734;2022-10-22T00:16:18;13.50;99.90
18153;DHT22;9202;51.578;7.734;2022-10-22T00:20:37;13.50;99.90
18153;DHT22;9202;51.578;7.734;2022-10-22T00:22:40;13.50;99.90
18153;DHT22;9202;51.578;7.734;2022-10-22T00:24:45;13.50;99.90
18153;DHT22;9202;51.578;7.734;2022-10-22T00:29:04;13.50;99.90
18153;DHT22;9202;51.578;7.734;2022-10-22T00:31:08;13.40;99.90
18153;DHT22;9202;51.578;7.734;2022-10-22T00:33:12;13.40;99.90
18153;DHT22;9202;51.578;7.734;2022-10-22T00:35:15;13.30;99.90
18153;DHT22;9202;51.578;7.734;2022-10-22T00:37:19;13.30;99.90
18153;DHT22;9202;51.578;7.734;2022-10-22T00:39:24;13.30;99.90
18153;DHT22;9202;51.578;7.734;2022-10-22T00:41:28;13.40;99.90
18153;DHT22;9202;51.578;7.734;2022-10-22T00:45:49;13.00;99.90
18153;DHT22;9202;51.578;7.734;2022-10-22T00:47:56;12.90;99.90
18153;DHT22;9202;51.578;7.734;2022-10-22T00:50:00;12.90;99.90
18153;DHT22;9202;51.578;7.734;2022-10-22T00:52:04;13.00;99.90
18153;DHT22;9202;51.578;7.734;2022-10-22T00:54:08;13.00;99.90
18153;DHT22;9202;51.578;7.734;2022-10-22T00:56:12;13.10;99.90
18153;DHT22;9202;51.578;7.734;2022-10-22T00:58:17;13.10;99.90
18153;DHT22;9202;51.578;7.734;2022-10-22T01:00:22;13.10;99.90
18153;DHT22;9202;51.578;7.734;2022-10-22T01:02:26;13.20;99.90
18153;DHT22;9202;51.578;7.734;2022-10-22T01:06:50;13.10;99.90
18153;DHT22;9202;51.578;7.734;2022-10-22T01:09:00;13.20;99.90
18153;DHT22;9202;51.578;7.734;2022-10-22T01:11:12;13.20;99.90
18153;DHT22;9202;51.578;7.734;2022-10-22T01:13:23;13.10;99.90
18153;DHT22;9202;51.578;7.734;2022-10-22T01:15:30;13.10;99.90
18153;DHT22;9202;51.578;7.734;2022-10-22T01:20:00;13.10;99.90
18153;DHT22;9202;51.578;7.734;2022-10-22T01:22:08;13.10;99.90
18153;DHT22;9202;51.578;7.734;2022-10-22T01:26:55;13.10;99.90
18153;DHT22;9202;51.578;7.734;2022-10-22T01:29:01;13.10;99.90
18153;DHT22;9202;51.578;7.734;2022-10-22T01:31:07;13.10;99.90
18153;DHT22;9202;51.578;7.734;2022-10-22T01:33:14;13.00;99.90
18153;DHT22;9202;51.578;7.734;2022-10-22T01:35:21;13.00;99.90
18153;DHT22;9202;51.578;7.734;2022-10-22T01:39:44;12.90;99.90
18153;DHT22;9202;51.578;7.734;2022-10-22T01:41:49;13.00;99.90
18153;DHT22;9202;51.578;7.734;2022-10-22T01:43:52;12.90;99.90
18153;DHT22;9202;51.578;7.734;2022-10-22T01:45:59;13.00;99.90
18153;DHT22;9202;51.578;7.734;2022-10-22T01:48:09;12.90;99.90
18153;DHT22;9202;51.578;7.734;2022-10-22T01:50:47;12.90;99.90
18153;DHT22;9202;51.578;7.734;2022-10-22T01:55:12;13.10;99.90
18153;DHT22;9202;51.578;7.734;2022-10-22T01:59:46;12.90;99.90
18153;DHT22;9202;51.578;7.734;2022-10-22T02:01:53;12.80;99.90
18153;DHT22;9202;51.578;7.734;2022-10-22T02:04:02;12.90;99.90
18153;DHT22;9202;51.578;7.734;2022-10-22T02:06:10;12.90;99.90
18153;DHT22;9202;51.578;7.734;2022-10-22T02:08:16;12.90;99.90
18153;DHT22;9202;51.578;7.734;2022-10-22T02:10:21;12.90;99.90
18153;DHT22;9202;51.578;7.734;2022-10-22T02:14:42;12.90;99.90
18153;DHT22;9202;51.578;7.734;2022-10-22T02:16:47;12.90;99.90
18153;DHT22;9202;51.578;7.734;2022-10-22T02:18:53;12.90;99.90
18153;DHT22;9202;51.578;7.734;2022-10-22T02:20:58;12.90;99.90
18153;DHT22;9202;51.578;7.734;2022-10-22T02:23:03;12.90;99.90
18153;DHT22;9202;51.578;7.734;2022-10-22T02:25:07;12.80;99.90
18153;DHT22;9202;51.578;7.734;2022-10-22T02:31:51;12.70;99.90
18153;DHT22;9202;51.578;7.734;2022-10-22T02:34:00;12.80;99.90
18153;DHT22;9202;51.578;7.734;2022-10-22T02:36:05;12.70;99.90
18153;DHT22;9202;51.578;7.734;2022-10-22T02:38:12;12.70;99.90
18153;DHT22;9202;51.578;7.734;2022-10-22T02:40:16;12.70;99.90
18153;DHT22;9202;51.578;7.734;2022-10-22T02:42:20;12.80;99.90
18153;DHT22;9202;51.578;7.734;2022-10-22T02:46:43;12.80;99.90
18153;DHT22;9202;51.578;7.734;2022-10-22T02:48:46;12.70;99.90
18153;DHT22;9202;51.578;7.734;2022-10-22T02:50:50;12.70;99.90
18153;DHT22;9202;51.578;7.734;2022-10-22T02:52:53;12.60;99.90
18153;DHT22;9202;51.578;7.734;2022-10-22T02:54:57;12.60;99.90
18153;DHT22;9202;51.578;7.734;2022-10-22T02:57:00;12.60;99.90
18153;DHT22;9202;51.578;7.734;2022-10-22T02:59:04;12.60;99.90
18153;DHT22;9202;51.578;7.734;2022-10-22T03:01:07;12.60;99.90
18153;DHT22;9202;51.578;7.734;2022-10-22T03:03:12;12.60;99.90
18153;DHT22;9202;51.578;7.734;2022-10-22T03:05:16;12.60;99.90
18153;DHT22;9202;51.578;7.734;2022-10-22T03:07:19;12.60;99.90
18153;DHT22;9202;51.578;7.734;2022-10-22T03:09:23;12.60;99.90
18153;DHT22;9202;51.578;7.734;2022-10-22T03:11:27;12.60;99.90
18153;DHT22;9202;51.578;7.734;2022-10-22T03:15:49;12.50;99.90
18153;DHT22;9202;51.578;7.734;2022-10-22T03:17:53;12.50;99.90
18153;DHT22;9202;51.578;7.734;2022-10-22T03:19:57;12.40;99.90
18153;DHT22;9202;51.578;7.734;2022-10-22T03:22:03;12.40;99.90
18153;DHT22;9202;51.578;7.734;2022-10-22T03:24:09;12.30;99.90
18153;DHT22;9202;51.578;7.734;2022-10-22T03:26:14;12.30;99.90
18153;DHT22;9202;51.578;7.734;2022-10-22T03:28:18;12.20;99.90
18153;DHT22;9202;51.578;7.734;2022-10-22T03:30:21;12.20;99.90
18153;DHT22;9202;51.578;7.734;2022-10-22T03:32:25;12.20;99.90
18153;DHT22;9202;51.578;7.734;2022-10-22T03:36:46;12.20;99.90
18153;DHT22;9202;51.578;7.734;2022-10-22T03:38:50;12.20;99.90
18153;DHT22;9202;51.578;7.734;2022-10-22T03:40:53;12.20;99.90
18153;DHT22;9202;51.578;7.734;2022-10-22T03:42:58;12.20;99.90
18153;DHT22;9202;51.578;7.734;2022-10-22T03:45:01;12.20;99.90
18153;DHT22;9202;51.578;7.734;2022-10-22T03:47:05;12.10;99.90
18153;DHT22;9202;51.578;7.734;2022-10-22T03:49:08;12.20;99.90
18153;DHT22;9202;51.578;7.734;2022-10-22T03:51:12;12.20;99.90
18153;DHT22;9202;51.578;7.734;2022-10-22T03:53:15;12.20;99.90
18153;DHT22;9202;51.578;7.734;2022-10-22T03:55:19;12.20;99.90
18153;DHT22;9202;51.578;7.734;2022-10-22T03:57:22;12.10;99.90
18153;DHT22;9202;51.578;7.734;2022-10-22T03:59:27;12.00;99.90
18153;DHT22;9202;51.578;7.734;2022-10-22T04:01:30;12.00;99.90
18153;DHT22;9202;51.578;7.734;2022-10-22T04:03:34;12.10;99.90
18153;DHT22;9202;51.578;7.734;2022-10-22T04:07:55;12.00;99.90
18153;DHT22;9202;51.578;7.734;2022-10-22T04:09:58;12.00;99.90
18153;DHT22;9202;51.578;7.734;2022-10-22T04:12:02;12.00;99.90
18153;DHT22;9202;51.578;7.734;2022-10-22T04:14:07;12.00;99.90
18153;DHT22;9202;51.578;7.734;2022-10-22T04:16:12;11.90;99.90
18153;DHT22;9202;51.578;7.734;2022-10-22T04:18:16;11.90;99.90
18153;DHT22;9202;51.578;7.734;2022-10-22T04:20:19;11.90;99.90
18153;DHT22;9202;51.578;7.734;2022-10-22T04:22:23;11.90;99.90
18153;DHT22;9202;51.578;7.734;2022-10-22T04:24:26;11.90;99.90
18153;DHT22;9202;51.578;7.734;2022-10-22T04:26:31;11.90;99.90
18153;DHT22;9202;51.578;7.734;2022-10-22T04:30:51;11.80;99.90
18153;DHT22;9202;51.578;7.734;2022-10-22T04:32:54;11.80;99.90
18153;DHT22;9202;51.578;7.734;2022-10-22T04:34:57;11.70;99.90
18153;DHT22;9202;51.578;7.734;2022-10-22T04:37:01;11.70;99.90
18153;DHT22;9202;51.578;7.734;2022-10-22T04:39:05;11.70;99.90
18153;DHT22;9202;51.578;7.734;2022-10-22T04:41:10;11.60;99.90
18153;DHT22;9202;51.578;7.734;2022-10-22T04:43:13;11.50;99.90
18153;DHT22;9202;51.578;7.734;2022-10-22T04:45:17;11.50;99.90
18153;DHT22;9202;51.578;7.734;2022-10-22T04:47:21;11.50;99.90
18153;DHT22;9202;51.578;7.734;2022-10-22T04:49:24;11.50;99.90
18153;DHT22;9202;51.578;7.734;2022-10-22T04:51:28;11.50;99.90
18153;DHT22;9202;51.578;7.734;2022-10-22T04:53:32;11.60;99.90
18153;DHT22;9202;51.578;7.734;2022-10-22T04:55:37;11.50;99.90
18153;DHT22;9202;51.578;7.734;2022-10-22T04:59:57;11.60;99.90
18153;DHT22;9202;51.578;7.734;2022-10-22T05:02:00;11.50;99.90
18153;DHT22;9202;51.578;7.734;2022-10-22T05:04:05;11.60;99.90
18153;DHT22;9202;51.578;7.734;2022-10-22T05:06:09;11.60;99.90
18153;DHT22;9202;51.578;7.734;2022-10-22T05:08:12;11.50;99.90
18153;DHT22;9202;51.578;7.734;2022-10-22T05:10:16;11.60;99.90
18153;DHT22;9202;51.578;7.734;2022-10-22T05:12:20;11.60;99.90
18153;DHT22;9202;51.578;7.734;2022-10-22T05:14:24;11.60;99.90
18153;DHT22;9202;51.578;7.734;2022-10-22T05:18:44;11.70;99.90
18153;DHT22;9202;51.578;7.734;2022-10-22T05:20:49;11.80;99.90
18153;DHT22;9202;51.578;7.734;2022-10-22T05:22:52;11.80;99.90
18153;DHT22;9202;51.578;7.734;2022-10-22T05:24:56;11.80;99.90
18153;DHT22;9202;51.578;7.734;2022-10-22T05:27:00;11.80;99.90
18153;DHT22;9202;51.578;7.734;2022-10-22T05:29:03;11.80;99.90
18153;DHT22;9202;51.578;7.734;2022-10-22T05:31:09;11.80;99.90
18153;DHT22;9202;51.578;7.734;2022-10-22T05:33:13;11.90;99.90
18153;DHT22;9202;51.578;7.734;2022-10-22T05:35:18;11.90;99.90
18153;DHT22;9202;51.578;7.734;2022-10-22T05:37:22;11.90;99.90
18153;DHT22;9202;51.578;7.734;2022-10-22T05:39:27;11.90;99.90
18153;DHT22;9202;51.578;7.734;2022-10-22T05:41:32;11.80;99.90
18153;DHT22;9202;51.578;7.734;2022-10-22T05:45:56;11.80;99.90
18153;DHT22;9202;51.578;7.734;2022-10-22T05:48:02;11.80;99.90
18153;DHT22;9202;51.578;7.734;2022-10-22T05:50:07;11.70;99.90
18153;DHT22;9202;51.578;7.734;2022-10-22T05:52:10;11.60;99.90
18153;DHT22;9202;51.578;7.734;2022-10-22T05:54:16;11.60;99.90
18153;DHT22;9202;51.578;7.734;2022-10-22T05:56:21;11.60;99.90
18153;DHT22;9202;51.578;7.734;2022-10-22T05:58:24;11.60;99.90
18153;DHT22;9202;51.578;7.734;2022-10-22T06:00:28;11.50;99.90
18153;DHT22;9202;51.578;7.734;2022-10-22T06:02:32;11.50;99.90
18153;DHT22;9202;51.578;7.734;2022-10-22T06:04:36;11.50;99.90
18153;DHT22;9202;51.578;7.734;2022-10-22T06:09:02;11.50;99.90
18153;DHT22;9202;51.578;7.734;2022-10-22T06:11:06;11.60;99.90
18153;DHT22;9202;51.578;7.734;2022-10-22T06:13:10;11.60;99.90
18153;DHT22;9202;51.578;7.734;2022-10-22T06:15:15;11.60;99.90
18153;DHT22;9202;51.578;7.734;2022-10-22T06:17:20;11.60;99.90
18153;DHT22;9202;51.578;7.734;2022-10-22T06:19:24;11.70;99.90
18153;DHT22;9202;51.578;7.734;2022-10-22T06:21:44;11.70;99.90
18153;DHT22;9202;51.578;7.734;2022-10-22T06:24:00;11.70;99.90
18153;DHT22;9202;51.578;7.734;2022-10-22T06:26:05;11.60;99.90
18153;DHT22;9202;51.578;7.734;2022-10-22T06:28:08;11.60;99.90
18153;DHT22;9202;51.578;7.734;2022-10-22T06:30:13;11.60;99.90
18153;DHT22;9202;51.578;7.734;2022-10-22T06:32:16;11.50;99.90
18153;DHT22;9202;51.578;7.734;2022-10-22T06:34:19;11.40;99.90
18153;DHT22;9202;51.578;7.734;2022-10-22T06:36:23;11.40;99.90
18153;DHT22;9202;51.578;7.734;2022-10-22T06:38:27;11.50;99.90
18153;DHT22;9202;51.578;7.734;2022-10-22T06:40:31;11.60;99.90
18153;DHT22;9202;51.578;7.734;2022-10-22T06:42:35;11.60;99.90
18153;DHT22;9202;51.578;7.734;2022-10-22T06:44:38;11.70;99.90
18153;DHT22;9202;51.578;7.734;2022-10-22T06:46:42;11.90;99.90
18153;DHT22;9202;51.578;7.734;2022-10-22T06:48:48;12.00;99.90
18153;DHT22;9202;51.578;7.734;2022-10-22T06:50:52;12.10;99.90
18153;DHT22;9202;51.578;7.734;2022-10-22T06:52:55;12.30;99.90
18153;DHT22;9202;51.578;7.734;2022-10-22T06:54:59;12.40;99.90
18153;DHT22;9202;51.578;7.734;2022-10-22T06:57:03;12.60;99.90
18153;DHT22;9202;51.578;7.734;2022-10-22T06:59:07;12.80;99.90
18153;DHT22;9202;51.578;7.734;2022-10-22T07:01:13;13.10;99.90
18153;DHT22;9202;51.578;7.734;2022-10-22T07:03:17;13.20;99.90
18153;DHT22;9202;51.578;7.734;2022-10-22T07:05:20;13.40;99.90
18153;DHT22;9202;51.578;7.734;2022-10-22T07:07:24;13.50;99.90
18153;DHT22;9202;51.578;7.734;2022-10-22T07:09:28;13.70;99.90
18153;DHT22;9202;51.578;7.734;2022-10-22T07:11:37;13.90;99.90
18153;DHT22;9202;51.578;7.734;2022-10-22T07:13:41;14.10;99.90
18153;DHT22;9202;51.578;7.734;2022-10-22T07:15:50;14.10;99.90
18153;DHT22;9202;51.578;7.734;2022-10-22T07:17:51;14.20;99.90
18153;DHT22;9202;51.578;7.734;2022-10-22T07:19:55;14.30;99.90
18153;DHT22;9202;51.578;7.734;2022-10-22T07:21:59;14.40;99.90
18153;DHT22;9202;51.578;7.734;2022-10-22T07:24:03;14.50;99.90
18153;DHT22;9202;51.578;7.734;2022-10-22T07:26:07;14.60;99.90
18153;DHT22;9202;51.578;7.734;2022-10-22T07:28:11;14.70;99.90
18153;DHT22;9202;51.578;7.734;2022-10-22T07:30:15;14.80;99.90
18153;DHT22;9202;51.578;7.734;2022-10-22T07:32:18;14.90;99.90
18153;DHT22;9202;51.578;7.734;2022-10-22T07:34:23;15.00;99.90
18153;DHT22;9202;51.578;7.734;2022-10-22T07:36:27;15.10;99.90
18153;DHT22;9202;51.578;7.734;2022-10-22T07:38:30;15.10;99.90
18153;DHT22;9202;51.578;7.734;2022-10-22T07:40:34;15.30;99.90
18153;DHT22;9202;51.578;7.734;2022-10-22T07:42:38;15.30;99.90
18153;DHT22;9202;51.578;7.734;2022-10-22T07:46:57;15.60;99.90
18153;DHT22;9202;51.578;7.734;2022-10-22T07:51:20;15.90;99.90
18153;DHT22;9202;51.578;7.734;2022-10-22T07:53:26;16.00;99.90
18153;DHT22;9202;51.578;7.734;2022-10-22T07:57:46;16.30;99.90
18153;DHT22;9202;51.578;7.734;2022-10-22T07:59:50;16.30;99.90
18153;DHT22;9202;51.578;7.734;2022-10-22T08:01:54;16.40;99.90
18153;DHT22;9202;51.578;7.734;2022-10-22T08:03:58;16.40;99.90
18153;DHT22;9202;51.578;7.734;2022-10-22T08:06:02;16.40;99.90
18153;DHT22;9202;51.578;7.734;2022-10-22T08:08:05;16.50;99.90
18153;DHT22;9202;51.578;7.734;2022-10-22T08:10:10;16.50;99.90
18153;DHT22;9202;51.578;7.734;2022-10-22T08:12:14;16.40;99.90
18153;DHT22;9202;51.578;7.734;2022-10-22T08:14:17;16.40;99.90
18153;DHT22;9202;51.578;7.734;2022-10-22T08:16:22;16.40;99.90
18153;DHT22;9202;51.578;7.734;2022-10-22T08:18:27;16.30;99.90
18153;DHT22;9202;51.578;7.734;2022-10-22T08:20:31;16.30;99.90
18153;DHT22;9202;51.578;7.734;2022-10-22T08:22:34;16.20;99.90
18153;DHT22;9202;51.578;7.734;2022-10-22T08:24:38;16.20;99.90
18153;DHT22;9202;51.578;7.734;2022-10-22T08:26:42;16.30;99.90
18153;DHT22;9202;51.578;7.734;2022-10-22T08:28:46;16.50;99.90
18153;DHT22;9202;51.578;7.734;2022-10-22T08:33:06;16.30;99.90
18153;DHT22;9202;51.578;7.734;2022-10-22T08:35:09;16.60;99.90
18153;DHT22;9202;51.578;7.734;2022-10-22T08:37:15;16.70;99.90
18153;DHT22;9202;51.578;7.734;2022-10-22T08:39:19;16.80;99.90
18153;DHT22;9202;51.578;7.734;2022-10-22T08:41:24;16.80;99.90
18153;DHT22;9202;51.578;7.734;2022-10-22T08:43:53;17.00;99.90
18153;DHT22;9202;51.578;7.734;2022-10-22T08:46:05;17.00;99.90
18153;DHT22;9202;51.578;7.734;2022-10-22T08:48:15;17.00;99.90
18153;DHT22;9202;51.578;7.734;2022-10-22T08:50:23;17.00;99.90
18153;DHT22;9202;51.578;7.734;2022-10-22T08:52:28;17.10;99.90
18153;DHT22;9202;51.578;7.734;2022-10-22T08:54:42;17.10;99.90
18153;DHT22;9202;51.578;7.734;2022-10-22T08:56:55;17.10;99.90
18153;DHT22;9202;51.578;7.734;2022-10-22T09:01:13;17.20;99.90
18153;DHT22;9202;51.578;7.734;2022-10-22T09:06:07;17.40;99.90
18153;DHT22;9202;51.578;7.734;2022-10-22T09:08:14;17.50;99.90
18153;DHT22;9202;51.578;7.734;2022-10-22T09:12:35;17.50;99.90
18153;DHT22;9202;51.578;7.734;2022-10-22T09:14:39;17.50;99.90
18153;DHT22;9202;51.578;7.734;2022-10-22T09:17:01;17.50;99.90
18153;DHT22;9202;51.578;7.734;2022-10-22T09:19:24;17.50;99.90
18153;DHT22;9202;51.578;7.734;2022-10-22T09:21:33;17.40;99.90
18153;DHT22;9202;51.578;7.734;2022-10-22T09:23:44;17.50;99.90
18153;DHT22;9202;51.578;7.734;2022-10-22T09:28:02;17.40;99.90
18153;DHT22;9202;51.578;7.734;2022-10-22T09:32:26;17.40;99.90
18153;DHT22;9202;51.578;7.734;2022-10-22T09:34:31;17.40;99.90
18153;DHT22;9202;51.578;7.734;2022-10-22T09:36:35;17.40;99.90
18153;DHT22;9202;51.578;7.734;2022-10-22T09:38:44;17.40;99.90
18153;DHT22;9202;51.578;7.734;2022-10-22T09:43:03;17.40;99.90
18153;DHT22;9202;51.578;7.734;2022-10-22T09:45:17;17.40;99.90
18153;DHT22;9202;51.578;7.734;2022-10-22T09:47:32;17.30;99.90
18153;DHT22;9202;51.578;7.734;2022-10-22T09:51:56;17.20;99.90
18153;DHT22;9202;51.578;7.734;2022-10-22T09:56:20;17.10;99.90
18153;DHT22;9202;51.578;7.734;2022-10-22T09:58:23;17.10;99.90
18153;DHT22;9202;51.578;7.734;2022-10-22T10:00:28;17.00;99.90
18153;DHT22;9202;51.578;7.734;2022-10-22T10:02:31;17.00;99.90
18153;DHT22;9202;51.578;7.734;2022-10-22T10:04:39;17.00;99.90
18153;DHT22;9202;51.578;7.734;2022-10-22T10:06:44;17.00;99.90
18153;DHT22;9202;51.578;7.734;2022-10-22T10:08:48;17.00;99.90
18153;DHT22;9202;51.578;7.734;2022-10-22T10:10:55;17.00;99.90
18153;DHT22;9202;51.578;7.734;2022-10-22T10:15:19;16.90;99.90
18153;DHT22;9202;51.578;7.734;2022-10-22T10:17:26;17.00;99.90
18153;DHT22;9202;51.578;7.734;2022-10-22T10:19:41;17.00;99.90
18153;DHT22;9202;51.578;7.734;2022-10-22T10:21:50;17.00;99.90
18153;DHT22;9202;51.578;7.734;2022-10-22T10:26:13;17.20;99.90
18153;DHT22;9202;51.578;7.734;2022-10-22T10:28:24;17.30;99.90
18153;DHT22;9202;51.578;7.734;2022-10-22T10:30:28;17.40;99.90
18153;DHT22;9202;51.578;7.734;2022-10-22T10:35:18;17.70;99.90
18153;DHT22;9202;51.578;7.734;2022-10-22T10:39:51;17.80;99.90
18153;DHT22;9202;51.578;7.734;2022-10-22T10:41:51;17.60;99.90
18153;DHT22;9202;51.578;7.734;2022-10-22T10:46:18;17.50;99.90
18153;DHT22;9202;51.578;7.734;2022-10-22T10:48:34;17.40;99.90
18153;DHT22;9202;51.578;7.734;2022-10-22T10:50:46;17.40;99.90
18153;DHT22;9202;51.578;7.734;2022-10-22T10:55:12;17.30;99.90
18153;DHT22;9202;51.578;7.734;2022-10-22T10:57:24;17.30;99.90
18153;DHT22;9202;51.578;7.734;2022-10-22T10:59:36;17.30;99.90
18153;DHT22;9202;51.578;7.734;2022-10-22T11:04:08;17.20;99.90
18153;DHT22;9202;51.578;7.734;2022-10-22T11:06:14;17.10;99.90
18153;DHT22;9202;51.578;7.734;2022-10-22T11:08:20;17.10;99.90
18153;DHT22;9202;51.578;7.734;2022-10-22T11:10:28;17.10;99.90
18153;DHT22;9202;51.578;7.734;2022-10-22T11:12:35;17.10;99.90
18153;DHT22;9202;51.578;7.734;2022-10-22T11:17:00;17.10;99.90
18153;DHT22;9202;51.578;7.734;2022-10-22T11:19:08;17.00;99.90
18153;DHT22;9202;51.578;7.734;2022-10-22T11:21:20;17.00;99.90
18153;DHT22;9202;51.578;7.734;2022-10-22T11:23:28;17.00;99.90
18153;DHT22;9202;51.578;7.734;2022-10-22T11:25:36;17.00;99.90
18153;DHT22;9202;51.578;7.734;2022-10-22T11:27:43;16.90;99.90
18153;DHT22;9202;51.578;7.734;2022-10-22T11:32:07;16.90;99.90
18153;DHT22;9202;51.578;7.734;2022-10-22T11:36:32;16.90;99.90
18153;DHT22;9202;51.578;7.734;2022-10-22T11:38:36;16.90;99.90
18153;DHT22;9202;51.578;7.734;2022-10-22T11:43:31;16.90;99.90
18153;DHT22;9202;51.578;7.734;2022-10-22T11:50:21;16.90;99.90
18153;DHT22;9202;51.578;7.734;2022-10-22T11:52:39;17.00;99.90
18153;DHT22;9202;51.578;7.734;2022-10-22T11:54:45;17.10;99.90
18153;DHT22;9202;51.578;7.734;2022-10-22T11:56:56;17.20;99.90
18153;DHT22;9202;51.578;7.734;2022-10-22T11:59:00;17.30;99.90
18153;DHT22;9202;51.578;7.734;2022-10-22T12:01:21;17.30;99.90
18153;DHT22;9202;51.578;7.734;2022-10-22T12:03:37;17.40;99.90
18153;DHT22;9202;51.578;7.734;2022-10-22T12:05:42;17.40;99.90
18153;DHT22;9202;51.578;7.734;2022-10-22T12:07:54;17.40;99.90
18153;DHT22;9202;51.578;7.734;2022-10-22T12:12:18;17.50;99.90
18153;DHT22;9202;51.578;7.734;2022-10-22T12:16:51;17.60;99.90
18153;DHT22;9202;51.578;7.734;2022-10-22T12:18:59;17.60;99.90
18153;DHT22;9202;51.578;7.734;2022-10-22T12:21:03;17.60;99.90
18153;DHT22;9202;51.578;7.734;2022-10-22T12:23:08;17.60;99.90
18153;DHT22;9202;51.578;7.734;2022-10-22T12:27:36;17.60;99.90
18153;DHT22;9202;51.578;7.734;2022-10-22T12:29:40;17.60;99.90
18153;DHT22;9202;51.578;7.734;2022-10-22T12:34:00;17.60;99.90
18153;DHT22;9202;51.578;7.734;2022-10-22T12:36:04;17.70;99.90
18153;DHT22;9202;51.578;7.734;2022-10-22T12:40:29;17.90;99.90
18153;DHT22;9202;51.578;7.734;2022-10-22T12:42:34;17.90;99.90
18153;DHT22;9202;51.578;7.734;2022-10-22T12:44:40;17.90;99.90
18153;DHT22;9202;51.578;7.734;2022-10-22T12:46:44;18.00;99.90
18153;DHT22;9202;51.578;7.734;2022-10-22T12:48:48;17.90;99.90
18153;DHT22;9202;51.578;7.734;2022-10-22T12:50:53;17.90;99.90
18153;DHT22;9202;51.578;7.734;2022-10-22T12:52:57;17.90;99.90
18153;DHT22;9202;51.578;7.734;2022-10-22T12:55:03;17.90;99.90
18153;DHT22;9202;51.578;7.734;2022-10-22T12:59:31;17.90;99.90
18153;DHT22;9202;51.578;7.734;2022-10-22T13:04:12;17.90;99.90
18153;DHT22;9202;51.578;7.734;2022-10-22T13:06:23;17.90;99.90
18153;DHT22;9202;51.578;7.734;2022-10-22T13:10:50;17.90;99.90
18153;DHT22;9202;51.578;7.734;2022-10-22T13:12:56;17.80;99.90
18153;DHT22;9202;51.578;7.734;2022-10-22T13:15:19;17.80;99.90
18153;DHT22;9202;51.578;7.734;2022-10-22T13:20:01;17.90;99.90
18153;DHT22;9202;51.578;7.734;2022-10-22T13:22:24;17.80;99.90
18153;DHT22;9202;51.578;7.734;2022-10-22T13:24:28;17.80;99.90
18153;DHT22;9202;51.578;7.734;2022-10-22T13:28:52;17.70;99.90
18153;DHT22;9202;51.578;7.734;2022-10-22T13:30:57;17.70;99.90
18153;DHT22;9202;51.578;7.734;2022-10-22T13:33:03;17.60;99.90
18153;DHT22;9202;51.578;7.734;2022-10-22T13:35:11;17.60;99.90
18153;DHT22;9202;51.578;7.734;2022-10-22T13:37:16;17.50;99.90
18153;DHT22;9202;51.578;7.734;2022-10-22T13:39:22;17.50;99.90
18153;DHT22;9202;51.578;7.734;2022-10-22T13:41:27;17.50;99.90
18153;DHT22;9202;51.578;7.734;2022-10-22T13:43:32;17.50;99.90
18153;DHT22;9202;51.578;7.734;2022-10-22T13:47:54;17.50;99.90
18153;DHT22;9202;51.578;7.734;2022-10-22T13:52:21;17.60;99.90
18153;DHT22;9202;51.578;7.734;2022-10-22T13:54:24;17.60;99.90
18153;DHT22;9202;51.578;7.734;2022-10-22T13:58:46;17.60;99.90
18153;DHT22;9202;51.578;7.734;2022-10-22T14:00:53;17.50;99.90
18153;DHT22;9202;51.578;7.734;2022-10-22T14:02:58;17.50;99.90
18153;DHT22;9202;51.578;7.734;2022-10-22T14:05:02;17.50;99.90
18153;DHT22;9202;51.578;7.734;2022-10-22T14:07:12;17.40;99.90
18153;DHT22;9202;51.578;7.734;2022-10-22T14:09:15;17.40;99.90
18153;DHT22;9202;51.578;7.734;2022-10-22T14:11:19;17.40;99.90
18153;DHT22;9202;51.578;7.734;2022-10-22T14:15:40;17.30;99.90
18153;DHT22;9202;51.578;7.734;2022-10-22T14:17:45;17.30;99.90
18153;DHT22;9202;51.578;7.734;2022-10-22T14:19:51;17.30;99.90
18153;DHT22;9202;51.578;7.734;2022-10-22T14:21:55;17.30;99.90
18153;DHT22;9202;51.578;7.734;2022-10-22T14:23:58;17.30;99.90
18153;DHT22;9202;51.578;7.734;2022-10-22T14:26:02;17.20;99.90
18153;DHT22;9202;51.578;7.734;2022-10-22T14:28:07;17.20;99.90
18153;DHT22;9202;51.578;7.734;2022-10-22T14:30:17;17.20;99.90
18153;DHT22;9202;51.578;7.734;2022-10-22T14:32:20;17.10;99.90
18153;DHT22;9202;51.578;7.734;2022-10-22T14:34:24;17.10;99.90
18153;DHT22;9202;51.578;7.734;2022-10-22T14:36:28;17.10;99.90
18153;DHT22;9202;51.578;7.734;2022-10-22T14:38:32;17.10;99.90
18153;DHT22;9202;51.578;7.734;2022-10-22T14:40:36;17.10;99.90
18153;DHT22;9202;51.578;7.734;2022-10-22T14:44:59;17.10;99.90
18153;DHT22;9202;51.578;7.734;2022-10-22T14:47:02;17.10;99.90
18153;DHT22;9202;51.578;7.734;2022-10-22T14:49:06;17.10;99.90
18153;DHT22;9202;51.578;7.734;2022-10-22T14:51:12;17.10;99.90
18153;DHT22;9202;51.578;7.734;2022-10-22T14:53:16;17.10;99.90
18153;DHT22;9202;51.578;7.734;2022-10-22T14:55:20;17.10;99.90
18153;DHT22;9202;51.578;7.734;2022-10-22T14:59:40;17.10;99.90
18153;DHT22;9202;51.578;7.734;2022-10-22T15:01:44;17.10;99.90
18153;DHT22;9202;51.578;7.734;2022-10-22T15:03:47;17.00;99.90
18153;DHT22;9202;51.578;7.734;2022-10-22T15:05:52;17.10;99.90
18153;DHT22;9202;51.578;7.734;2022-10-22T15:07:57;17.10;99.90
18153;DHT22;9202;51.578;7.734;2022-10-22T15:10:01;17.20;99.90
18153;DHT22;9202;51.578;7.734;2022-10-22T15:12:06;17.20;99.90
18153;DHT22;9202;51.578;7.734;2022-10-22T15:14:09;17.20;99.90
18153;DHT22;9202;51.578;7.734;2022-10-22T15:16:14;17.10;99.90
18153;DHT22;9202;51.578;7.734;2022-10-22T15:18:18;17.10;99.90
18153;DHT22;9202;51.578;7.734;2022-10-22T15:20:25;17.10;99.90
18153;DHT22;9202;51.578;7.734;2022-10-22T15:22:28;17.00;99.90
18153;DHT22;9202;51.578;7.734;2022-10-22T15:24:33;16.90;99.90
18153;DHT22;9202;51.578;7.734;2022-10-22T15:26:36;16.90;99.90
18153;DHT22;9202;51.578;7.734;2022-10-22T15:28:41;16.80;99.90
18153;DHT22;9202;51.578;7.734;2022-10-22T15:30:50;16.80;99.90
18153;DHT22;9202;51.578;7.734;2022-10-22T15:32:50;16.80;99.90
18153;DHT22;9202;51.578;7.734;2022-10-22T15:34:54;16.80;99.90
18153;DHT22;9202;51.578;7.734;2022-10-22T15:36:59;16.70;99.90
18153;DHT22;9202;51.578;7.734;2022-10-22T15:39:07;16.70;99.90
18153;DHT22;9202;51.578;7.734;2022-10-22T15:41:12;16.70;99.90
18153;DHT22;9202;51.578;7.734;2022-10-22T15:43:15;16.60;99.90
18153;DHT22;9202;51.578;7.734;2022-10-22T15:45:19;16.50;99.90
18153;DHT22;9202;51.578;7.734;2022-10-22T15:49:41;16.40;99.90
18153;DHT22;9202;51.578;7.734;2022-10-22T15:51:46;16.40;99.90
18153;DHT22;9202;51.578;7.734;2022-10-22T15:53:51;16.30;99.90